sensor_id;sensor_type;location;lat;lon;timestamp;P1;durP1;ratioP1;P2;durP2;ratioP2
73266;SDS011;61495;53.400;7.608;2023-04-06T00:01:20;9.80;;;5.20;;
73266;SDS011;61495;53.400;7.608;2023-04-06T00:03:45;11.32;;;5.25;;
73266;SDS011;61495;53.400;7.608;2023-04-06T00:06:10;9.07;;;5.27;;
73266;SDS011;61495;53.400;7.608;2023-04-06T00:08:36;11.35;;;5.78;;
73266;SDS011;61495;53.400;7.608;2023-04-06T00:11:01;8.17;;;5.47;;
73266;SDS011;61495;53.400;7.608;2023-04-06T00:13:26;10.02;;;5.65;;
73266;SDS011;61495;53.400;7.608;2023-04-06T00:15:52;10.50;;;5.53;;
73266;SDS011;61495;53.400;7.608;2023-04-06T00:18:17;8.27;;;5.75;;
73266;SDS011;61495;53.400;7.608;2023-04-06T00:20:43;9.07;;;5.35;;
73266;SDS011;61495;53.400;7.608;2023-04-06T00:23:08;11.53;;;5.60;;
73266;SDS011;61495;53.400;7.608;2023-04-06T00:25:33;11.73;;;5.85;;
73266;SDS011;61495;53.400;7.608;2023-04-06T00:27:59;8.50;;;5.32;;
73266;SDS011;61495;53.400;7.608;2023-04-06T00:30:24;10.23;;;5.00;;
73266;SDS011;61495;53.400;7.608;2023-04-06T00:32:50;12.02;;;5.70;;
73266;SDS011;61495;53.400;7.608;2023-04-06T00:35:15;11.35;;;6.95;;
73266;SDS011;61495;53.400;7.608;2023-04-06T00:37:40;10.90;;;6.20;;
73266;SDS011;61495;53.400;7.608;2023-04-06T00:40:06;10.90;;;6.43;;
73266;SDS011;61495;53.400;7.608;2023-04-06T00:42:32;7.85;;;5.50;;
73266;SDS011;61495;53.400;7.608;2023-04-06T00:44:58;8.98;;;5.40;;
73266;SDS011;61495;53.400;7.608;2023-04-06T00:47:24;9.07;;;5.63;;
73266;SDS011;61495;53.400;7.608;2023-04-06T00:49:51;11.77;;;6.15;;
73266;SDS011;61495;53.400;7.608;2023-04-06T00:52:17;11.65;;;5.78;;
73266;SDS011;61495;53.400;7.608;2023-04-06T00:54:43;12.88;;;5.80;;
73266;SDS011;61495;53.400;7.608;2023-04-06T00:57:09;11.20;;;5.70;;
73266;SDS011;61495;53.400;7.608;2023-04-06T00:59:34;9.43;;;5.65;;
73266;SDS011;61495;53.400;7.608;2023-04-06T01:02:00;11.45;;;5.35;;
73266;SDS011;61495;53.400;7.608;2023-04-06T01:04:26;8.45;;;5.70;;
73266;SDS011;61495;53.400;7.608;2023-04-06T01:06:52;10.70;;;5.30;;
73266;SDS011;61495;53.400;7.608;2023-04-06T01:09:17;10.52;;;6.28;;
73266;SDS011;61495;53.400;7.608;2023-04-06T01:11:43;10.43;;;6.15;;
73266;SDS011;61495;53.400;7.608;2023-04-06T01:14:08;10.77;;;6.30;;
73266;SDS011;61495;53.400;7.608;2023-04-06T01:16:34;10.20;;;5.85;;
73266;SDS011;61495;53.400;7.608;2023-04-06T01:19:00;14.32;;;6.43;;
73266;SDS011;61495;53.400;7.608;2023-04-06T01:21:26;10.90;;;6.43;;
73266;SDS011;61495;53.400;7.608;2023-04-06T01:23:52;11.82;;;6.38;;
73266;SDS011;61495;53.400;7.608;2023-04-06T01:26:17;12.30;;;6.32;;
73266;SDS011;61495;53.400;7.608;2023-04-06T01:28:43;11.13;;;6.10;;
73266;SDS011;61495;53.400;7.608;2023-04-06T01:31:09;8.40;;;5.65;;
73266;SDS011;61495;53.400;7.608;2023-04-06T01:33:34;10.75;;;6.03;;
73266;SDS011;61495;53.400;7.608;2023-04-06T01:36:08;11.23;;;6.03;;
73266;SDS011;61495;53.400;7.608;2023-04-06T01:38:41;11.60;;;5.95;;
73266;SDS011;61495;53.400;7.608;2023-04-06T01:41:23;13.63;;;6.18;;
73266;SDS011;61495;53.400;7.608;2023-04-06T01:43:55;11.27;;;5.43;;
73266;SDS011;61495;53.400;7.608;2023-04-06T01:46:37;9.90;;;5.97;;
73266;SDS011;61495;53.400;7.608;2023-04-06T01:49:19;10.95;;;5.93;;
73266;SDS011;61495;53.400;7.608;2023-04-06T01:51:52;13.00;;;7.22;;
73266;SDS011;61495;53.400;7.608;2023-04-06T01:54:26;13.32;;;6.00;;
73266;SDS011;61495;53.400;7.608;2023-04-06T01:56:51;11.80;;;6.87;;
73266;SDS011;61495;53.400;7.608;2023-04-06T01:59:17;10.15;;;6.28;;
73266;SDS011;61495;53.400;7.608;2023-04-06T02:01:42;10.05;;;6.03;;
73266;SDS011;61495;53.400;7.608;2023-04-06T02:04:08;11.95;;;6.68;;
73266;SDS011;61495;53.400;7.608;2023-04-06T02:06:33;14.20;;;7.15;;
73266;SDS011;61495;53.400;7.608;2023-04-06T02:08:58;11.57;;;6.60;;
73266;SDS011;61495;53.400;7.608;2023-04-06T02:11:24;11.27;;;7.13;;
73266;SDS011;61495;53.400;7.608;2023-04-06T02:13:49;13.45;;;7.70;;
73266;SDS011;61495;53.400;7.608;2023-04-06T02:18:40;12.25;;;7.07;;
73266;SDS011;61495;53.400;7.608;2023-04-06T02:21:06;12.63;;;6.10;;
73266;SDS011;61495;53.400;7.608;2023-04-06T02:25:56;11.10;;;6.43;;
73266;SDS011;61495;53.400;7.608;2023-04-06T02:28:21;11.23;;;6.23;;
73266;SDS011;61495;53.400;7.608;2023-04-06T02:33:12;15.83;;;6.57;;
73266;SDS011;61495;53.400;7.608;2023-04-06T02:35:37;12.23;;;6.97;;
73266;SDS011;61495;53.400;7.608;2023-04-06T02:40:28;12.23;;;6.27;;
73266;SDS011;61495;53.400;7.608;2023-04-06T02:45:19;11.53;;;6.87;;
73266;SDS011;61495;53.400;7.608;2023-04-06T02:50:10;14.90;;;6.80;;
73266;SDS011;61495;53.400;7.608;2023-04-06T02:52:35;14.43;;;7.22;;
73266;SDS011;61495;53.400;7.608;2023-04-06T02:55:00;14.70;;;8.40;;
73266;SDS011;61495;53.400;7.608;2023-04-06T02:57:26;14.87;;;8.87;;
73266;SDS011;61495;53.400;7.608;2023-04-06T03:02:16;14.33;;;8.37;;
73266;SDS011;61495;53.400;7.608;2023-04-06T03:07:07;16.25;;;7.75;;
73266;SDS011;61495;53.400;7.608;2023-04-06T03:11:58;13.70;;;7.25;;
73266;SDS011;61495;53.400;7.608;2023-04-06T03:14:23;13.55;;;8.73;;
73266;SDS011;61495;53.400;7.608;2023-04-06T03:16:49;14.43;;;8.02;;
73266;SDS011;61495;53.400;7.608;2023-04-06T03:21:40;15.05;;;8.40;;
73266;SDS011;61495;53.400;7.608;2023-04-06T03:24:07;18.92;;;8.93;;
73266;SDS011;61495;53.400;7.608;2023-04-06T03:28:58;14.25;;;9.23;;
73266;SDS011;61495;53.400;7.608;2023-04-06T03:31:23;17.27;;;8.60;;
73266;SDS011;61495;53.400;7.608;2023-04-06T03:33:48;15.87;;;8.10;;
73266;SDS011;61495;53.400;7.608;2023-04-06T03:38:39;15.77;;;8.40;;
73266;SDS011;61495;53.400;7.608;2023-04-06T03:41:05;15.38;;;8.90;;
73266;SDS011;61495;53.400;7.608;2023-04-06T03:45:55;12.53;;;7.93;;
73266;SDS011;61495;53.400;7.608;2023-04-06T03:50:46;14.33;;;8.83;;
73266;SDS011;61495;53.400;7.608;2023-04-06T03:53:11;18.00;;;10.23;;
73266;SDS011;61495;53.400;7.608;2023-04-06T03:58:02;18.13;;;9.47;;
73266;SDS011;61495;53.400;7.608;2023-04-06T04:00:27;16.10;;;8.30;;
73266;SDS011;61495;53.400;7.608;2023-04-06T04:02:53;16.88;;;9.57;;
73266;SDS011;61495;53.400;7.608;2023-04-06T04:07:43;16.13;;;8.57;;
73266;SDS011;61495;53.400;7.608;2023-04-06T04:12:34;16.17;;;7.45;;
73266;SDS011;61495;53.400;7.608;2023-04-06T04:15:00;17.10;;;9.05;;
73266;SDS011;61495;53.400;7.608;2023-04-06T04:17:25;16.57;;;8.93;;
73266;SDS011;61495;53.400;7.608;2023-04-06T04:22:16;14.67;;;8.37;;
73266;SDS011;61495;53.400;7.608;2023-04-06T04:27:06;15.27;;;8.97;;
73266;SDS011;61495;53.400;7.608;2023-04-06T04:31:57;16.53;;;8.73;;
73266;SDS011;61495;53.400;7.608;2023-04-06T04:36:51;15.48;;;8.73;;
73266;SDS011;61495;53.400;7.608;2023-04-06T04:39:17;17.42;;;9.35;;
73266;SDS011;61495;53.400;7.608;2023-04-06T04:44:07;18.00;;;8.97;;
73266;SDS011;61495;53.400;7.608;2023-04-06T04:48:58;18.77;;;9.20;;
73266;SDS011;61495;53.400;7.608;2023-04-06T04:53:50;15.43;;;8.70;;
73266;SDS011;61495;53.400;7.608;2023-04-06T04:58:40;16.57;;;8.93;;
73266;SDS011;61495;53.400;7.608;2023-04-06T05:03:32;13.93;;;7.90;;
73266;SDS011;61495;53.400;7.608;2023-04-06T05:05:57;18.48;;;9.70;;
73266;SDS011;61495;53.400;7.608;2023-04-06T05:10:48;14.80;;;7.90;;
73266;SDS011;61495;53.400;7.608;2023-04-06T05:13:14;19.05;;;9.88;;
73266;SDS011;61495;53.400;7.608;2023-04-06T05:18:05;17.88;;;8.90;;
73266;SDS011;61495;53.400;7.608;2023-04-06T05:20:31;16.85;;;8.63;;
73266;SDS011;61495;53.400;7.608;2023-04-06T05:25:22;19.37;;;9.37;;
73266;SDS011;61495;53.400;7.608;2023-04-06T05:30:13;17.25;;;9.77;;
73266;SDS011;61495;53.400;7.608;2023-04-06T05:32:39;18.08;;;9.38;;
73266;SDS011;61495;53.400;7.608;2023-04-06T05:37:30;17.42;;;8.65;;
73266;SDS011;61495;53.400;7.608;2023-04-06T05:42:21;18.98;;;9.13;;
73266;SDS011;61495;53.400;7.608;2023-04-06T05:44:47;16.75;;;9.52;;
73266;SDS011;61495;53.400;7.608;2023-04-06T05:49:37;18.80;;;10.13;;
73266;SDS011;61495;53.400;7.608;2023-04-06T05:54:29;14.80;;;9.07;;
73266;SDS011;61495;53.400;7.608;2023-04-06T05:59:20;15.75;;;9.65;;
73266;SDS011;61495;53.400;7.608;2023-04-06T06:01:45;16.65;;;8.73;;
73266;SDS011;61495;53.400;7.608;2023-04-06T06:04:11;12.88;;;8.10;;
73266;SDS011;61495;53.400;7.608;2023-04-06T06:06:36;13.97;;;7.83;;
73266;SDS011;61495;53.400;7.608;2023-04-06T06:09:01;17.73;;;9.30;;
73266;SDS011;61495;53.400;7.608;2023-04-06T06:11:28;14.70;;;9.20;;
73266;SDS011;61495;53.400;7.608;2023-04-06T06:13:54;16.67;;;9.27;;
73266;SDS011;61495;53.400;7.608;2023-04-06T06:16:20;13.40;;;8.18;;
73266;SDS011;61495;53.400;7.608;2023-04-06T06:18:45;15.10;;;8.45;;
73266;SDS011;61495;53.400;7.608;2023-04-06T06:21:11;14.70;;;8.85;;
73266;SDS011;61495;53.400;7.608;2023-04-06T06:23:37;15.05;;;8.15;;
73266;SDS011;61495;53.400;7.608;2023-04-06T06:26:03;15.05;;;8.68;;
73266;SDS011;61495;53.400;7.608;2023-04-06T06:28:28;14.70;;;8.05;;
73266;SDS011;61495;53.400;7.608;2023-04-06T06:30:53;13.38;;;6.93;;
73266;SDS011;61495;53.400;7.608;2023-04-06T06:33:19;13.60;;;7.35;;
73266;SDS011;61495;53.400;7.608;2023-04-06T06:35:44;13.68;;;7.65;;
73266;SDS011;61495;53.400;7.608;2023-04-06T06:38:10;14.00;;;8.05;;
73266;SDS011;61495;53.400;7.608;2023-04-06T06:40:35;13.48;;;8.02;;
73266;SDS011;61495;53.400;7.608;2023-04-06T06:43:01;13.70;;;8.02;;
73266;SDS011;61495;53.400;7.608;2023-04-06T06:45:27;14.52;;;7.97;;
73266;SDS011;61495;53.400;7.608;2023-04-06T06:47:54;14.27;;;8.60;;
73266;SDS011;61495;53.400;7.608;2023-04-06T06:50:19;14.65;;;8.75;;
73266;SDS011;61495;53.400;7.608;2023-04-06T06:52:44;11.15;;;6.75;;
73266;SDS011;61495;53.400;7.608;2023-04-06T06:55:10;11.38;;;8.15;;
73266;SDS011;61495;53.400;7.608;2023-04-06T06:57:36;15.45;;;8.77;;
73266;SDS011;61495;53.400;7.608;2023-04-06T07:00:01;10.35;;;6.85;;
73266;SDS011;61495;53.400;7.608;2023-04-06T07:02:30;14.77;;;8.45;;
73266;SDS011;61495;53.400;7.608;2023-04-06T07:04:55;12.02;;;7.15;;
73266;SDS011;61495;53.400;7.608;2023-04-06T07:07:21;11.95;;;7.18;;
73266;SDS011;61495;53.400;7.608;2023-04-06T07:09:46;12.93;;;7.68;;
73266;SDS011;61495;53.400;7.608;2023-04-06T07:12:11;12.82;;;7.72;;
73266;SDS011;61495;53.400;7.608;2023-04-06T07:14:37;11.88;;;7.07;;
73266;SDS011;61495;53.400;7.608;2023-04-06T07:17:02;12.40;;;7.38;;
73266;SDS011;61495;53.400;7.608;2023-04-06T07:19:27;13.52;;;7.25;;
73266;SDS011;61495;53.400;7.608;2023-04-06T07:21:53;12.27;;;6.78;;
73266;SDS011;61495;53.400;7.608;2023-04-06T07:24:19;11.45;;;6.65;;
73266;SDS011;61495;53.400;7.608;2023-04-06T07:26:44;11.45;;;6.85;;
73266;SDS011;61495;53.400;7.608;2023-04-06T07:29:10;11.15;;;7.35;;
73266;SDS011;61495;53.400;7.608;2023-04-06T07:31:35;11.77;;;7.25;;
73266;SDS011;61495;53.400;7.608;2023-04-06T07:34:01;9.27;;;6.00;;
73266;SDS011;61495;53.400;7.608;2023-04-06T07:36:26;9.38;;;6.43;;
73266;SDS011;61495;53.400;7.608;2023-04-06T07:38:51;10.65;;;6.45;;
73266;SDS011;61495;53.400;7.608;2023-04-06T07:41:26;10.65;;;6.72;;
73266;SDS011;61495;53.400;7.608;2023-04-06T07:43:51;11.02;;;6.38;;
73266;SDS011;61495;53.400;7.608;2023-04-06T07:46:16;10.60;;;6.80;;
73266;SDS011;61495;53.400;7.608;2023-04-06T07:48:42;9.43;;;6.38;;
73266;SDS011;61495;53.400;7.608;2023-04-06T07:51:07;11.57;;;6.57;;
73266;SDS011;61495;53.400;7.608;2023-04-06T07:53:33;8.20;;;6.03;;
73266;SDS011;61495;53.400;7.608;2023-04-06T07:55:59;9.48;;;6.15;;
73266;SDS011;61495;53.400;7.608;2023-04-06T07:58:24;11.05;;;5.45;;
73266;SDS011;61495;53.400;7.608;2023-04-06T08:00:50;9.60;;;5.65;;
73266;SDS011;61495;53.400;7.608;2023-04-06T08:03:15;10.55;;;5.57;;
73266;SDS011;61495;53.400;7.608;2023-04-06T08:05:41;8.70;;;6.38;;
73266;SDS011;61495;53.400;7.608;2023-04-06T08:08:07;8.80;;;5.40;;
73266;SDS011;61495;53.400;7.608;2023-04-06T08:10:33;9.15;;;6.20;;
73266;SDS011;61495;53.400;7.608;2023-04-06T08:12:59;9.30;;;6.47;;
73266;SDS011;61495;53.400;7.608;2023-04-06T08:15:24;7.68;;;5.53;;
73266;SDS011;61495;53.400;7.608;2023-04-06T08:17:50;8.98;;;5.32;;
73266;SDS011;61495;53.400;7.608;2023-04-06T08:20:15;8.48;;;4.70;;
73266;SDS011;61495;53.400;7.608;2023-04-06T08:22:40;9.35;;;5.88;;
73266;SDS011;61495;53.400;7.608;2023-04-06T08:25:06;7.80;;;5.35;;
73266;SDS011;61495;53.400;7.608;2023-04-06T08:27:31;8.15;;;5.35;;
73266;SDS011;61495;53.400;7.608;2023-04-06T08:29:57;7.53;;;4.93;;
73266;SDS011;61495;53.400;7.608;2023-04-06T08:32:22;9.55;;;5.90;;
73266;SDS011;61495;53.400;7.608;2023-04-06T08:34:47;8.85;;;4.85;;
73266;SDS011;61495;53.400;7.608;2023-04-06T08:37:13;10.75;;;5.75;;
73266;SDS011;61495;53.400;7.608;2023-04-06T08:39:38;9.13;;;5.40;;
73266;SDS011;61495;53.400;7.608;2023-04-06T08:42:03;7.90;;;4.68;;
73266;SDS011;61495;53.400;7.608;2023-04-06T08:44:29;8.25;;;5.47;;
73266;SDS011;61495;53.400;7.608;2023-04-06T08:46:57;8.05;;;5.30;;
73266;SDS011;61495;53.400;7.608;2023-04-06T08:49:24;9.15;;;5.07;;
73266;SDS011;61495;53.400;7.608;2023-04-06T08:51:49;8.48;;;5.07;;
73266;SDS011;61495;53.400;7.608;2023-04-06T08:54:16;9.60;;;5.75;;
73266;SDS011;61495;53.400;7.608;2023-04-06T08:56:41;8.43;;;5.45;;
73266;SDS011;61495;53.400;7.608;2023-04-06T08:59:08;9.52;;;5.57;;
73266;SDS011;61495;53.400;7.608;2023-04-06T09:01:36;9.13;;;4.65;;
73266;SDS011;61495;53.400;7.608;2023-04-06T09:04:06;9.45;;;5.38;;
73266;SDS011;61495;53.400;7.608;2023-04-06T09:06:35;8.15;;;5.55;;
73266;SDS011;61495;53.400;7.608;2023-04-06T09:09:01;7.57;;;5.00;;
73266;SDS011;61495;53.400;7.608;2023-04-06T09:11:27;8.45;;;5.55;;
73266;SDS011;61495;53.400;7.608;2023-04-06T09:13:54;9.13;;;5.85;;
73266;SDS011;61495;53.400;7.608;2023-04-06T09:16:20;8.15;;;5.13;;
73266;SDS011;61495;53.400;7.608;2023-04-06T09:18:46;8.85;;;5.53;;
73266;SDS011;61495;53.400;7.608;2023-04-06T09:21:12;7.57;;;5.32;;
73266;SDS011;61495;53.400;7.608;2023-04-06T09:23:41;11.27;;;5.20;;
73266;SDS011;61495;53.400;7.608;2023-04-06T09:26:10;7.43;;;4.85;;
73266;SDS011;61495;53.400;7.608;2023-04-06T09:28:48;7.45;;;5.05;;
73266;SDS011;61495;53.400;7.608;2023-04-06T09:31:22;5.70;;;4.55;;
73266;SDS011;61495;53.400;7.608;2023-04-06T09:33:48;9.13;;;5.38;;
73266;SDS011;61495;53.400;7.608;2023-04-06T09:36:14;9.85;;;5.22;;
73266;SDS011;61495;53.400;7.608;2023-04-06T09:38:52;9.32;;;5.20;;
73266;SDS011;61495;53.400;7.608;2023-04-06T09:41:26;9.85;;;5.45;;
73266;SDS011;61495;53.400;7.608;2023-04-06T09:44:03;6.78;;;4.32;;
73266;SDS011;61495;53.400;7.608;2023-04-06T09:46:34;8.95;;;5.45;;
73266;SDS011;61495;53.400;7.608;2023-04-06T09:49:03;10.25;;;5.40;;
73266;SDS011;61495;53.400;7.608;2023-04-06T09:51:30;9.52;;;6.10;;
73266;SDS011;61495;53.400;7.608;2023-04-06T09:54:05;9.20;;;5.38;;
73266;SDS011;61495;53.400;7.608;2023-04-06T09:56:40;7.78;;;5.10;;
73266;SDS011;61495;53.400;7.608;2023-04-06T10:02:04;9.38;;;5.70;;
73266;SDS011;61495;53.400;7.608;2023-04-06T10:04:37;10.45;;;5.55;;
73266;SDS011;61495;53.400;7.608;2023-04-06T10:07:16;10.02;;;5.57;;
73266;SDS011;61495;53.400;7.608;2023-04-06T10:09:42;9.48;;;6.00;;
73266;SDS011;61495;53.400;7.608;2023-04-06T10:12:11;8.55;;;6.03;;
73266;SDS011;61495;53.400;7.608;2023-04-06T10:14:38;10.80;;;6.40;;
73266;SDS011;61495;53.400;7.608;2023-04-06T10:17:04;11.13;;;6.07;;
73266;SDS011;61495;53.400;7.608;2023-04-06T10:19:39;8.70;;;5.88;;
73266;SDS011;61495;53.400;7.608;2023-04-06T10:22:12;9.35;;;7.13;;
73266;SDS011;61495;53.400;7.608;2023-04-06T10:24:43;9.32;;;6.30;;
73266;SDS011;61495;53.400;7.608;2023-04-06T10:27:09;9.60;;;6.35;;
73266;SDS011;61495;53.400;7.608;2023-04-06T10:29:45;8.70;;;6.50;;
73266;SDS011;61495;53.400;7.608;2023-04-06T10:32:13;9.05;;;6.10;;
73266;SDS011;61495;53.400;7.608;2023-04-06T10:34:39;10.10;;;6.60;;
73266;SDS011;61495;53.400;7.608;2023-04-06T10:37:14;9.65;;;6.22;;
73266;SDS011;61495;53.400;7.608;2023-04-06T10:39:47;9.75;;;6.38;;
73266;SDS011;61495;53.400;7.608;2023-04-06T10:42:20;11.15;;;7.68;;
73266;SDS011;61495;53.400;7.608;2023-04-06T10:44:49;12.07;;;6.55;;
73266;SDS011;61495;53.400;7.608;2023-04-06T10:47:15;10.98;;;6.68;;
73266;SDS011;61495;53.400;7.608;2023-04-06T10:49:44;10.63;;;7.03;;
73266;SDS011;61495;53.400;7.608;2023-04-06T10:52:10;10.02;;;6.50;;
73266;SDS011;61495;53.400;7.608;2023-04-06T10:54:36;9.63;;;6.80;;
73266;SDS011;61495;53.400;7.608;2023-04-06T10:57:07;11.27;;;7.28;;
73266;SDS011;61495;53.400;7.608;2023-04-06T10:59:32;9.20;;;6.25;;
73266;SDS011;61495;53.400;7.608;2023-04-06T11:01:57;12.50;;;6.97;;
73266;SDS011;61495;53.400;7.608;2023-04-06T11:04:23;9.38;;;7.50;;
73266;SDS011;61495;53.400;7.608;2023-04-06T11:06:50;10.57;;;7.35;;
73266;SDS011;61495;53.400;7.608;2023-04-06T11:09:28;8.93;;;7.30;;
73266;SDS011;61495;53.400;7.608;2023-04-06T11:11:56;11.05;;;7.45;;
73266;SDS011;61495;53.400;7.608;2023-04-06T11:14:22;11.18;;;7.30;;
73266;SDS011;61495;53.400;7.608;2023-04-06T11:16:47;12.55;;;7.88;;
73266;SDS011;61495;53.400;7.608;2023-04-06T11:19:14;11.68;;;8.48;;
73266;SDS011;61495;53.400;7.608;2023-04-06T11:21:41;14.90;;;8.18;;
73266;SDS011;61495;53.400;7.608;2023-04-06T11:24:09;14.48;;;8.93;;
73266;SDS011;61495;53.400;7.608;2023-04-06T11:26:40;11.48;;;8.13;;
73266;SDS011;61495;53.400;7.608;2023-04-06T11:29:09;14.00;;;7.90;;
73266;SDS011;61495;53.400;7.608;2023-04-06T11:34:29;12.95;;;8.55;;
73266;SDS011;61495;53.400;7.608;2023-04-06T11:36:56;12.55;;;9.05;;
73266;SDS011;61495;53.400;7.608;2023-04-06T11:39:26;10.88;;;8.13;;
73266;SDS011;61495;53.400;7.608;2023-04-06T11:41:53;13.70;;;8.50;;
73266;SDS011;61495;53.400;7.608;2023-04-06T11:47:14;11.68;;;8.10;;
73266;SDS011;61495;53.400;7.608;2023-04-06T11:49:41;10.77;;;7.63;;
73266;SDS011;61495;53.400;7.608;2023-04-06T11:52:14;13.35;;;8.57;;
73266;SDS011;61495;53.400;7.608;2023-04-06T11:54:46;16.10;;;8.55;;
73266;SDS011;61495;53.400;7.608;2023-04-06T11:57:13;10.88;;;7.55;;
73266;SDS011;61495;53.400;7.608;2023-04-06T11:59:39;14.30;;;8.43;;
73266;SDS011;61495;53.400;7.608;2023-04-06T12:02:05;11.63;;;8.35;;
73266;SDS011;61495;53.400;7.608;2023-04-06T12:04:30;10.68;;;7.40;;
73266;SDS011;61495;53.400;7.608;2023-04-06T12:06:56;12.23;;;7.28;;
73266;SDS011;61495;53.400;7.608;2023-04-06T12:09:22;11.88;;;7.80;;
73266;SDS011;61495;53.400;7.608;2023-04-06T12:11:48;12.25;;;8.95;;
73266;SDS011;61495;53.400;7.608;2023-04-06T12:14:13;12.50;;;8.82;;
73266;SDS011;61495;53.400;7.608;2023-04-06T12:16:39;13.23;;;8.82;;
73266;SDS011;61495;53.400;7.608;2023-04-06T12:19:05;12.63;;;8.77;;
73266;SDS011;61495;53.400;7.608;2023-04-06T12:21:30;11.60;;;8.75;;
73266;SDS011;61495;53.400;7.608;2023-04-06T12:23:57;10.80;;;7.95;;
73266;SDS011;61495;53.400;7.608;2023-04-06T12:26:23;10.95;;;8.38;;
73266;SDS011;61495;53.400;7.608;2023-04-06T12:28:48;11.57;;;7.70;;
73266;SDS011;61495;53.400;7.608;2023-04-06T12:31:14;12.27;;;8.07;;
73266;SDS011;61495;53.400;7.608;2023-04-06T12:33:41;12.32;;;8.30;;
73266;SDS011;61495;53.400;7.608;2023-04-06T12:36:11;11.88;;;8.23;;
73266;SDS011;61495;53.400;7.608;2023-04-06T12:38:37;12.98;;;8.48;;
73266;SDS011;61495;53.400;7.608;2023-04-06T12:41:04;11.43;;;7.97;;
73266;SDS011;61495;53.400;7.608;2023-04-06T12:43:30;13.52;;;9.30;;
73266;SDS011;61495;53.400;7.608;2023-04-06T12:45:56;11.85;;;8.27;;
73266;SDS011;61495;53.400;7.608;2023-04-06T12:48:21;10.25;;;7.43;;
73266;SDS011;61495;53.400;7.608;2023-04-06T12:50:53;12.10;;;7.28;;
73266;SDS011;61495;53.400;7.608;2023-04-06T12:53:26;14.07;;;8.05;;
73266;SDS011;61495;53.400;7.608;2023-04-06T12:55:53;12.40;;;7.47;;
73266;SDS011;61495;53.400;7.608;2023-04-06T12:58:19;10.27;;;7.78;;
73266;SDS011;61495;53.400;7.608;2023-04-06T13:00:46;11.50;;;7.80;;
73266;SDS011;61495;53.400;7.608;2023-04-06T13:03:12;12.73;;;7.15;;
73266;SDS011;61495;53.400;7.608;2023-04-06T13:05:46;10.98;;;7.07;;
73266;SDS011;61495;53.400;7.608;2023-04-06T13:08:13;12.02;;;8.15;;
73266;SDS011;61495;53.400;7.608;2023-04-06T13:10:43;10.15;;;6.72;;
73266;SDS011;61495;53.400;7.608;2023-04-06T13:13:09;10.43;;;6.90;;
73266;SDS011;61495;53.400;7.608;2023-04-06T13:15:34;10.93;;;7.95;;
73266;SDS011;61495;53.400;7.608;2023-04-06T13:18:01;12.30;;;7.72;;
73266;SDS011;61495;53.400;7.608;2023-04-06T13:20:26;10.55;;;7.30;;
73266;SDS011;61495;53.400;7.608;2023-04-06T13:22:52;11.23;;;7.38;;
73266;SDS011;61495;53.400;7.608;2023-04-06T13:25:18;12.80;;;8.05;;
73266;SDS011;61495;53.400;7.608;2023-04-06T13:27:43;10.38;;;7.55;;
73266;SDS011;61495;53.400;7.608;2023-04-06T13:30:11;12.35;;;7.78;;
73266;SDS011;61495;53.400;7.608;2023-04-06T13:32:37;10.02;;;6.78;;
73266;SDS011;61495;53.400;7.608;2023-04-06T13:35:02;8.70;;;6.65;;
73266;SDS011;61495;53.400;7.608;2023-04-06T13:37:28;9.80;;;7.05;;
73266;SDS011;61495;53.400;7.608;2023-04-06T13:39:54;11.35;;;6.68;;
73266;SDS011;61495;53.400;7.608;2023-04-06T13:42:19;13.73;;;7.57;;
73266;SDS011;61495;53.400;7.608;2023-04-06T13:44:45;10.70;;;7.25;;
73266;SDS011;61495;53.400;7.608;2023-04-06T13:47:11;12.65;;;7.38;;
73266;SDS011;61495;53.400;7.608;2023-04-06T13:49:37;13.57;;;8.25;;
73266;SDS011;61495;53.400;7.608;2023-04-06T13:52:03;11.38;;;7.53;;
73266;SDS011;61495;53.400;7.608;2023-04-06T13:54:28;11.07;;;7.80;;
73266;SDS011;61495;53.400;7.608;2023-04-06T13:56:53;11.32;;;7.82;;
73266;SDS011;61495;53.400;7.608;2023-04-06T13:59:19;10.75;;;8.23;;
73266;SDS011;61495;53.400;7.608;2023-04-06T14:01:45;12.88;;;7.78;;
73266;SDS011;61495;53.400;7.608;2023-04-06T14:04:10;12.55;;;8.20;;
73266;SDS011;61495;53.400;7.608;2023-04-06T14:06:36;11.55;;;8.82;;
73266;SDS011;61495;53.400;7.608;2023-04-06T14:09:02;12.98;;;8.80;;
73266;SDS011;61495;53.400;7.608;2023-04-06T14:11:27;12.73;;;9.02;;
73266;SDS011;61495;53.400;7.608;2023-04-06T14:13:53;11.18;;;8.30;;
73266;SDS011;61495;53.400;7.608;2023-04-06T14:16:18;12.85;;;9.05;;
73266;SDS011;61495;53.400;7.608;2023-04-06T14:18:44;11.95;;;9.23;;
73266;SDS011;61495;53.400;7.608;2023-04-06T14:21:10;11.02;;;8.75;;
73266;SDS011;61495;53.400;7.608;2023-04-06T14:23:35;13.40;;;8.93;;
73266;SDS011;61495;53.400;7.608;2023-04-06T14:26:05;11.95;;;8.90;;
73266;SDS011;61495;53.400;7.608;2023-04-06T14:28:32;11.27;;;8.55;;
73266;SDS011;61495;53.400;7.608;2023-04-06T14:31:01;14.13;;;8.80;;
73266;SDS011;61495;53.400;7.608;2023-04-06T14:33:34;12.40;;;8.73;;
73266;SDS011;61495;53.400;7.608;2023-04-06T14:36:02;17.42;;;9.30;;
73266;SDS011;61495;53.400;7.608;2023-04-06T14:38:28;15.60;;;9.65;;
73266;SDS011;61495;53.400;7.608;2023-04-06T14:40:53;13.02;;;9.15;;
73266;SDS011;61495;53.400;7.608;2023-04-06T14:43:20;14.25;;;9.50;;
73266;SDS011;61495;53.400;7.608;2023-04-06T14:45:45;13.68;;;9.00;;
73266;SDS011;61495;53.400;7.608;2023-04-06T14:48:11;14.48;;;9.38;;
73266;SDS011;61495;53.400;7.608;2023-04-06T14:50:37;11.73;;;8.60;;
73266;SDS011;61495;53.400;7.608;2023-04-06T14:53:03;14.52;;;9.30;;
73266;SDS011;61495;53.400;7.608;2023-04-06T14:55:29;13.52;;;9.43;;
73266;SDS011;61495;53.400;7.608;2023-04-06T14:57:55;14.70;;;9.45;;
73266;SDS011;61495;53.400;7.608;2023-04-06T15:00:21;14.43;;;8.82;;
73266;SDS011;61495;53.400;7.608;2023-04-06T15:02:46;18.40;;;9.32;;
73266;SDS011;61495;53.400;7.608;2023-04-06T15:05:11;14.77;;;9.43;;
73266;SDS011;61495;53.400;7.608;2023-04-06T15:07:37;12.82;;;8.52;;
73266;SDS011;61495;53.400;7.608;2023-04-06T15:10:03;11.77;;;7.93;;
73266;SDS011;61495;53.400;7.608;2023-04-06T15:12:29;16.05;;;10.02;;
73266;SDS011;61495;53.400;7.608;2023-04-06T15:14:55;13.82;;;9.43;;
73266;SDS011;61495;53.400;7.608;2023-04-06T15:17:20;13.07;;;9.18;;
73266;SDS011;61495;53.400;7.608;2023-04-06T15:19:46;16.67;;;8.98;;
73266;SDS011;61495;53.400;7.608;2023-04-06T15:22:11;15.05;;;10.00;;
73266;SDS011;61495;53.400;7.608;2023-04-06T15:24:36;14.60;;;10.10;;
73266;SDS011;61495;53.400;7.608;2023-04-06T15:27:02;15.27;;;9.30;;
73266;SDS011;61495;53.400;7.608;2023-04-06T15:29:27;13.52;;;9.73;;
73266;SDS011;61495;53.400;7.608;2023-04-06T15:31:52;14.02;;;9.43;;
73266;SDS011;61495;53.400;7.608;2023-04-06T15:34:18;13.48;;;8.50;;
73266;SDS011;61495;53.400;7.608;2023-04-06T15:36:43;11.70;;;8.82;;
73266;SDS011;61495;53.400;7.608;2023-04-06T15:39:10;13.75;;;8.65;;
73266;SDS011;61495;53.400;7.608;2023-04-06T15:41:36;14.02;;;10.15;;
73266;SDS011;61495;53.400;7.608;2023-04-06T15:44:01;15.80;;;10.02;;
73266;SDS011;61495;53.400;7.608;2023-04-06T15:46:27;18.08;;;9.75;;
73266;SDS011;61495;53.400;7.608;2023-04-06T15:48:52;14.60;;;10.35;;
73266;SDS011;61495;53.400;7.608;2023-04-06T15:51:18;16.70;;;11.02;;
73266;SDS011;61495;53.400;7.608;2023-04-06T15:53:43;16.27;;;10.63;;
73266;SDS011;61495;53.400;7.608;2023-04-06T15:56:09;15.50;;;10.77;;
73266;SDS011;61495;53.400;7.608;2023-04-06T15:58:35;16.48;;;11.75;;
73266;SDS011;61495;53.400;7.608;2023-04-06T16:01:09;19.17;;;11.35;;
73266;SDS011;61495;53.400;7.608;2023-04-06T16:03:39;17.60;;;11.25;;
73266;SDS011;61495;53.400;7.608;2023-04-06T16:06:04;17.65;;;11.65;;